createdAt,value
2022-10-19T00:01:33.088Z,10.60
2022-10-19T00:04:04.830Z,9.25
2022-10-19T00:06:38.768Z,9.52
2022-10-19T00:09:09.957Z,9.35
2022-10-19T00:11:41.614Z,10.25
2022-10-19T00:14:14.122Z,8.80
2022-10-19T00:16:44.094Z,8.65
2022-10-19T00:19:16.733Z,7.00
2022-10-19T00:21:47.048Z,5.25
2022-10-19T00:24:15.919Z,7.95
2022-10-19T00:26:44.955Z,8.48
2022-10-19T00:29:14.872Z,9.57
2022-10-19T00:31:44.241Z,11.48
2022-10-19T00:34:13.134Z,10.20
2022-10-19T00:36:42.414Z,8.30
2022-10-19T00:39:15.520Z,8.57
2022-10-19T00:41:45.327Z,7.43
2022-10-19T00:44:51.337Z,6.88
2022-10-19T00:47:24.386Z,6.80
2022-10-19T00:49:54.181Z,7.40
2022-10-19T00:52:26.040Z,6.18
2022-10-19T00:54:57.587Z,5.57
2022-10-19T00:57:30.737Z,5.55
2022-10-19T01:00:01.639Z,6.53
2022-10-19T01:02:30.705Z,7.50
2022-10-19T01:05:00.566Z,6.45
2022-10-19T01:07:29.760Z,8.68
2022-10-19T01:10:02.064Z,8.95
2022-10-19T01:13:00.018Z,9.50
2022-10-19T01:15:39.049Z,9.32
2022-10-19T01:18:17.187Z,7.10
2022-10-19T01:21:21.744Z,8.55
2022-10-19T01:24:27.865Z,9.43
2022-10-19T01:27:43.025Z,8.90
2022-10-19T01:30:23.619Z,8.27
2022-10-19T01:33:15.936Z,5.55
2022-10-19T01:35:52.283Z,6.63
2022-10-19T01:38:31.856Z,7.80
2022-10-19T01:41:10.395Z,8.95
2022-10-19T01:43:44.759Z,11.30
2022-10-19T01:46:20.846Z,15.30
2022-10-19T01:48:56.175Z,14.80
2022-10-19T01:51:30.336Z,14.95
2022-10-19T01:54:03.879Z,10.93
2022-10-19T01:56:34.614Z,7.80
2022-10-19T01:59:08.542Z,8.18
2022-10-19T02:01:42.711Z,7.38
2022-10-19T02:04:14.236Z,5.77
2022-10-19T02:06:43.362Z,5.85
2022-10-19T02:09:18.020Z,5.65
2022-10-19T02:11:53.365Z,4.65
2022-10-19T02:14:30.395Z,5.30
2022-10-19T02:17:04.163Z,5.03
2022-10-19T02:19:33.015Z,5.57
2022-10-19T02:22:02.040Z,4.32
2022-10-19T02:24:30.813Z,4.80
2022-10-19T02:27:01.795Z,6.35
2022-10-19T02:29:30.636Z,6.15
2022-10-19T02:32:00.997Z,4.97
2022-10-19T02:34:30.592Z,5.07
2022-10-19T02:37:00.042Z,5.63
2022-10-19T02:39:29.847Z,6.03
2022-10-19T02:42:05.391Z,7.85
2022-10-19T02:44:40.479Z,8.25
2022-10-19T02:49:43.605Z,6.55
2022-10-19T02:52:13.945Z,6.50
2022-10-19T02:54:45.169Z,5.93
2022-10-19T02:57:18.303Z,5.82
2022-10-19T02:59:47.232Z,7.35
2022-10-19T03:02:18.968Z,5.55
2022-10-19T03:04:48.569Z,6.88
2022-10-19T03:07:19.277Z,5.53
2022-10-19T03:09:48.054Z,6.40
2022-10-19T03:12:17.134Z,6.75
2022-10-19T03:14:46.039Z,8.90
2022-10-19T03:17:14.914Z,7.57
2022-10-19T03:19:45.217Z,5.65
2022-10-19T03:22:14.487Z,6.45
2022-10-19T03:24:43.423Z,6.35
2022-10-19T03:27:12.212Z,7.03
2022-10-19T03:29:41.051Z,8.45
2022-10-19T03:32:09.885Z,6.28
2022-10-19T03:34:38.855Z,6.97
2022-10-19T03:37:09.170Z,6.10
2022-10-19T03:39:37.984Z,7.00
2022-10-19T03:42:06.847Z,6.70
2022-10-19T03:44:35.737Z,6.95
2022-10-19T03:47:04.583Z,7.53
2022-10-19T03:49:34.682Z,7.75
2022-10-19T03:52:05.973Z,9.57
2022-10-19T03:54:36.196Z,7.82
2022-10-19T03:57:05.104Z,8.57
2022-10-19T03:59:33.928Z,7.75
2022-10-19T04:02:03.289Z,8.13
2022-10-19T04:04:32.185Z,8.38
2022-10-19T04:07:01.956Z,7.63
2022-10-19T04:09:30.836Z,8.27
2022-10-19T04:12:01.029Z,9.18
2022-10-19T04:14:33.083Z,10.23
2022-10-19T04:17:07.922Z,10.00
2022-10-19T04:19:36.753Z,7.93
2022-10-19T04:22:05.551Z,8.55
2022-10-19T04:24:34.364Z,10.40
2022-10-19T04:27:05.305Z,10.63
2022-10-19T04:29:34.119Z,10.45
2022-10-19T04:32:02.953Z,9.32
2022-10-19T04:34:33.318Z,10.20
2022-10-19T04:37:04.142Z,10.25
2022-10-19T04:39:33.440Z,9.73
2022-10-19T04:42:02.263Z,10.88
2022-10-19T04:44:32.484Z,10.15
2022-10-19T04:47:01.990Z,10.45
2022-10-19T04:49:30.828Z,10.02
2022-10-19T04:51:59.797Z,9.23
2022-10-19T04:54:28.583Z,11.50
2022-10-19T04:56:57.453Z,8.32
2022-10-19T04:59:26.309Z,10.23
2022-10-19T05:01:56.569Z,13.48
2022-10-19T05:04:25.366Z,15.52
2022-10-19T05:06:54.212Z,14.10
2022-10-19T05:09:23.078Z,14.93
2022-10-19T05:11:52.045Z,12.63
2022-10-19T05:14:20.861Z,14.52
2022-10-19T05:16:49.752Z,15.43
2022-10-19T05:19:20.197Z,13.07
2022-10-19T05:21:49.031Z,11.60
2022-10-19T05:24:17.876Z,15.18
2022-10-19T05:26:46.651Z,12.55
2022-10-19T05:29:15.798Z,21.17
2022-10-19T05:31:44.793Z,22.02
2022-10-19T05:34:13.632Z,22.10
2022-10-19T05:36:43.999Z,20.95
2022-10-19T05:39:16.141Z,23.10
2022-10-19T05:41:45.630Z,21.48
2022-10-19T05:44:16.941Z,19.55
2022-10-19T05:46:46.179Z,18.55
2022-10-19T05:49:15.907Z,20.63
2022-10-19T05:51:46.428Z,18.52
2022-10-19T05:54:16.067Z,19.42
2022-10-19T05:56:45.353Z,15.15
2022-10-19T05:59:17.298Z,10.65
2022-10-19T06:01:46.890Z,11.65
2022-10-19T06:06:47.255Z,12.05
2022-10-19T06:09:16.132Z,10.38
2022-10-19T06:11:45.229Z,10.57
2022-10-19T06:14:15.992Z,9.07
2022-10-19T06:16:46.262Z,8.52
2022-10-19T06:19:15.338Z,11.38
2022-10-19T06:21:46.800Z,9.13
2022-10-19T06:24:15.977Z,9.98
2022-10-19T06:26:44.801Z,12.35
2022-10-19T06:29:13.639Z,9.95
2022-10-19T06:31:42.432Z,9.63
2022-10-19T06:34:11.287Z,11.32
2022-10-19T06:36:40.209Z,9.68
2022-10-19T06:39:10.391Z,9.10
2022-10-19T06:41:39.226Z,7.75
2022-10-19T06:44:20.801Z,6.85
2022-10-19T06:46:49.707Z,7.65
2022-10-19T06:49:18.576Z,6.05
2022-10-19T06:51:47.477Z,5.50
2022-10-19T06:54:17.734Z,4.85
2022-10-19T06:56:46.630Z,5.85
2022-10-19T06:59:17.675Z,4.95
2022-10-19T07:01:46.627Z,5.07
2022-10-19T07:04:15.510Z,4.20
2022-10-19T07:06:44.358Z,3.28
2022-10-19T07:09:13.169Z,4.45
2022-10-19T07:11:46.179Z,5.93
2022-10-19T07:14:15.752Z,5.60
2022-10-19T07:16:44.593Z,5.53
2022-10-19T07:19:13.813Z,4.45
2022-10-19T07:21:43.930Z,4.07
2022-10-19T07:24:12.776Z,4.20
2022-10-19T07:26:43.584Z,4.00
2022-10-19T07:29:12.387Z,3.70
2022-10-19T07:31:41.563Z,4.13
2022-10-19T07:34:13.354Z,3.70
2022-10-19T07:36:45.472Z,2.88
2022-10-19T07:39:14.942Z,3.75
2022-10-19T07:41:45.560Z,3.40
2022-10-19T07:44:16.856Z,2.70
2022-10-19T07:46:46.260Z,2.75
2022-10-19T07:49:19.070Z,3.05
2022-10-19T07:51:48.099Z,3.70
2022-10-19T07:54:16.877Z,2.80
2022-10-19T07:56:47.137Z,2.25
2022-10-19T07:59:17.341Z,2.72
2022-10-19T08:01:47.652Z,2.83
2022-10-19T08:07:06.956Z,1.83
2022-10-19T08:12:26.029Z,1.58
2022-10-19T08:14:55.193Z,1.77
2022-10-19T08:17:24.165Z,1.42
2022-10-19T08:19:53.069Z,2.20
2022-10-19T08:22:21.894Z,1.92
2022-10-19T08:24:50.752Z,7.50
2022-10-19T08:27:19.659Z,1.38
2022-10-19T08:29:50.036Z,1.30
2022-10-19T08:32:19.244Z,1.27
2022-10-19T08:34:48.085Z,2.42
2022-10-19T08:37:26.433Z,1.52
2022-10-19T08:40:06.977Z,1.77
2022-10-19T08:42:47.930Z,1.77
2022-10-19T08:45:33.785Z,2.00
2022-10-19T08:48:20.384Z,2.97
2022-10-19T08:50:49.886Z,3.22
2022-10-19T08:53:23.370Z,3.55
2022-10-19T08:56:06.617Z,6.30
2022-10-19T08:58:50.743Z,6.57
2022-10-19T09:01:37.553Z,5.88
2022-10-19T09:04:11.321Z,3.88
2022-10-19T09:06:50.802Z,2.92
2022-10-19T09:09:21.643Z,1.60
2022-10-19T09:11:52.260Z,1.52
2022-10-19T09:14:29.154Z,1.02
2022-10-19T09:17:03.671Z,1.70
2022-10-19T09:19:32.672Z,1.15
2022-10-19T09:22:05.467Z,0.98
2022-10-19T09:24:43.024Z,1.35
2022-10-19T09:27:21.255Z,1.13
2022-10-19T09:29:54.886Z,1.63
2022-10-19T09:32:29.701Z,1.58
2022-10-19T09:35:02.393Z,1.17
2022-10-19T09:37:33.143Z,0.80
2022-10-19T09:40:02.321Z,1.13
2022-10-19T09:42:34.692Z,1.23
2022-10-19T09:45:15.919Z,1.85
2022-10-19T09:47:49.445Z,0.77
2022-10-19T09:50:21.297Z,1.45
2022-10-19T09:52:50.956Z,1.15
2022-10-19T09:55:27.557Z,1.45
2022-10-19T09:58:03.313Z,0.98
2022-10-19T10:00:42.373Z,1.30
2022-10-19T10:03:25.651Z,0.73
2022-10-19T10:05:56.610Z,1.00
2022-10-19T10:08:28.555Z,1.05
2022-10-19T10:11:07.022Z,1.23
2022-10-19T10:13:41.113Z,1.08
2022-10-19T10:16:12.431Z,0.95
2022-10-19T10:18:54.966Z,1.08
2022-10-19T10:21:26.239Z,0.88
2022-10-19T10:24:05.585Z,0.98
2022-10-19T10:26:40.932Z,1.48
2022-10-19T10:31:52.278Z,1.20
2022-10-19T10:34:45.353Z,1.10
2022-10-19T10:37:21.871Z,1.42
2022-10-19T10:39:53.678Z,1.05
2022-10-19T10:42:30.498Z,0.90
2022-10-19T10:45:00.788Z,1.42
2022-10-19T10:47:30.618Z,1.13
2022-10-19T10:50:03.951Z,0.63
2022-10-19T10:52:33.267Z,0.88
2022-10-19T10:55:04.564Z,1.48
2022-10-19T10:57:37.936Z,0.80
2022-10-19T11:00:13.593Z,1.15
2022-10-19T11:02:49.214Z,0.98
2022-10-19T11:05:26.611Z,0.65
2022-10-19T11:08:02.402Z,0.70
2022-10-19T11:10:35.030Z,0.77
2022-10-19T11:13:11.811Z,0.85
2022-10-19T11:15:51.707Z,0.63
2022-10-19T11:18:25.477Z,0.88
2022-10-19T11:21:03.176Z,0.85
2022-10-19T11:23:43.184Z,0.55
2022-10-19T11:26:34.776Z,1.17
2022-10-19T11:29:16.669Z,0.77
2022-10-19T11:31:49.280Z,0.85
2022-10-19T11:34:37.079Z,0.93
2022-10-19T11:37:20.362Z,1.08
2022-10-19T11:40:00.727Z,0.95
2022-10-19T11:42:43.484Z,0.50
2022-10-19T11:45:23.912Z,1.30
2022-10-19T11:48:15.457Z,0.63
2022-10-19T11:50:58.616Z,0.88
2022-10-19T11:53:44.366Z,0.95
2022-10-19T11:56:20.880Z,0.50
2022-10-19T11:58:59.413Z,0.70
2022-10-19T12:01:43.887Z,1.33
2022-10-19T12:04:40.980Z,0.45
2022-10-19T12:07:27.343Z,0.38
2022-10-19T12:10:08.491Z,0.65
2022-10-19T12:12:39.909Z,0.47
2022-10-19T12:15:22.656Z,0.50
2022-10-19T12:17:55.216Z,0.40
2022-10-19T12:20:31.273Z,0.70
2022-10-19T12:23:03.302Z,0.95
2022-10-19T12:25:34.565Z,0.38
2022-10-19T12:28:05.084Z,0.50
2022-10-19T12:30:34.190Z,0.22
2022-10-19T12:33:10.640Z,0.38
2022-10-19T12:36:03.316Z,0.30
2022-10-19T12:38:45.975Z,0.40
2022-10-19T12:41:26.620Z,0.65
2022-10-19T12:44:07.147Z,0.93
2022-10-19T12:46:41.253Z,0.65
2022-10-19T12:49:51.588Z,0.40
2022-10-19T12:52:38.251Z,0.38
2022-10-19T12:55:29.809Z,0.32
2022-10-19T12:58:04.000Z,0.40
2022-10-19T13:00:35.074Z,0.40
2022-10-19T13:03:08.234Z,0.43
2022-10-19T13:05:37.735Z,0.55
2022-10-19T13:08:10.844Z,0.60
2022-10-19T13:10:42.648Z,2.10
2022-10-19T13:13:44.873Z,0.65
2022-10-19T13:16:58.910Z,0.50
2022-10-19T13:19:28.433Z,0.52
2022-10-19T13:22:29.963Z,0.55
2022-10-19T13:25:23.687Z,0.73
2022-10-19T13:27:53.640Z,0.38
2022-10-19T13:31:07.023Z,0.95
2022-10-19T13:33:53.588Z,1.30
2022-10-19T13:36:23.666Z,0.60
2022-10-19T13:39:16.889Z,0.90
2022-10-19T13:41:52.674Z,0.32
2022-10-19T13:44:25.158Z,0.50
2022-10-19T13:47:05.551Z,0.75
2022-10-19T13:53:12.315Z,0.50
2022-10-19T13:56:04.041Z,1.23
2022-10-19T13:58:57.634Z,0.32
2022-10-19T14:01:39.643Z,0.57
2022-10-19T14:04:20.834Z,0.70
2022-10-19T14:06:54.752Z,0.70
2022-10-19T14:10:00.095Z,0.70
2022-10-19T14:12:35.158Z,1.73
2022-10-19T14:15:20.835Z,0.60
2022-10-19T14:20:29.323Z,1.60
2022-10-19T14:22:58.538Z,0.95
2022-10-19T14:25:29.816Z,0.77
2022-10-19T14:28:05.857Z,0.77
2022-10-19T14:30:36.832Z,0.60
2022-10-19T14:33:10.595Z,0.52
2022-10-19T14:35:43.514Z,0.98
2022-10-19T14:38:19.952Z,1.08
2022-10-19T14:40:49.089Z,1.77
2022-10-19T14:43:24.405Z,1.00
2022-10-19T14:46:20.347Z,1.40
2022-10-19T14:48:51.656Z,0.70
2022-10-19T14:51:31.542Z,1.42
2022-10-19T14:54:04.695Z,0.50
2022-10-19T14:56:39.576Z,0.82
2022-10-19T14:59:25.305Z,1.15
2022-10-19T15:04:26.998Z,1.08
2022-10-19T15:06:56.818Z,1.00
2022-10-19T15:09:37.531Z,1.38
2022-10-19T15:12:10.561Z,0.90
2022-10-19T15:14:41.409Z,0.82
2022-10-19T15:17:24.627Z,1.10
2022-10-19T15:19:55.740Z,2.15
2022-10-19T15:22:38.122Z,1.15
2022-10-19T15:25:27.225Z,1.20
2022-10-19T15:27:57.636Z,0.85
2022-10-19T15:30:30.322Z,1.60
2022-10-19T15:33:14.237Z,0.75
2022-10-19T15:35:45.885Z,0.73
2022-10-19T15:38:22.122Z,1.63
2022-10-19T15:40:58.020Z,1.63
2022-10-19T15:43:45.110Z,1.92
2022-10-19T15:46:31.768Z,0.70
2022-10-19T15:49:25.486Z,1.67
2022-10-19T15:51:54.491Z,1.25
2022-10-19T15:54:24.041Z,1.20
2022-10-19T15:56:54.402Z,2.40
2022-10-19T15:59:23.897Z,1.60
2022-10-19T16:01:56.107Z,1.85
2022-10-19T16:04:25.228Z,2.05
2022-10-19T16:06:54.115Z,3.40
2022-10-19T16:09:23.137Z,3.88
2022-10-19T16:11:56.758Z,2.90
2022-10-19T16:14:26.570Z,1.13
2022-10-19T16:17:00.435Z,2.03
2022-10-19T16:19:30.548Z,1.40
2022-10-19T16:21:59.464Z,1.00
2022-10-19T16:24:28.279Z,1.55
2022-10-19T16:26:57.072Z,1.70
2022-10-19T16:29:28.904Z,1.40
2022-10-19T16:31:59.625Z,1.98
2022-10-19T16:34:28.590Z,1.90
2022-10-19T16:36:57.546Z,2.45
2022-10-19T16:39:26.829Z,1.60
2022-10-19T16:41:55.707Z,1.30
2022-10-19T16:44:24.507Z,1.83
2022-10-19T16:46:53.341Z,5.65
2022-10-19T16:49:23.791Z,1.92
2022-10-19T16:51:54.885Z,0.93
2022-10-19T16:54:27.334Z,0.95
2022-10-19T16:56:56.602Z,0.80
2022-10-19T16:59:25.478Z,0.68
2022-10-19T17:01:54.440Z,1.02
2022-10-19T17:04:26.071Z,1.02
2022-10-19T17:06:54.869Z,1.38
2022-10-19T17:12:14.701Z,0.95
2022-10-19T17:14:43.858Z,1.50
2022-10-19T17:17:13.014Z,0.80
2022-10-19T17:19:43.301Z,1.13
2022-10-19T17:22:12.070Z,1.23
2022-10-19T17:24:41.293Z,1.00
2022-10-19T17:27:10.161Z,1.70
2022-10-19T17:29:38.980Z,1.05
2022-10-19T17:32:08.055Z,1.83
2022-10-19T17:34:36.880Z,1.25
2022-10-19T17:37:07.169Z,1.30
2022-10-19T17:39:35.998Z,1.55
2022-10-19T17:42:05.013Z,2.20
2022-10-19T17:44:34.087Z,2.20
2022-10-19T17:47:04.161Z,3.60
2022-10-19T17:49:33.049Z,4.18
2022-10-19T17:52:02.008Z,1.10
2022-10-19T17:54:43.397Z,1.17
2022-10-19T17:57:21.048Z,1.15
2022-10-19T17:59:52.948Z,1.70
2022-10-19T18:02:22.126Z,1.27
2022-10-19T18:04:50.877Z,1.10
2022-10-19T18:07:21.990Z,1.70
2022-10-19T18:09:52.434Z,0.73
2022-10-19T18:12:21.334Z,1.33
2022-10-19T18:14:50.294Z,1.30
2022-10-19T18:17:21.747Z,3.67
2022-10-19T18:19:52.932Z,3.08
2022-10-19T18:22:21.962Z,2.60
2022-10-19T18:24:52.126Z,2.50
2022-10-19T18:27:20.982Z,1.88
2022-10-19T18:29:49.754Z,1.77
2022-10-19T18:32:18.679Z,4.07
2022-10-19T18:34:47.699Z,4.47
2022-10-19T18:37:16.498Z,4.82
2022-10-19T18:39:45.379Z,1.75
2022-10-19T18:42:16.479Z,2.15
2022-10-19T18:44:47.138Z,2.55
2022-10-19T18:47:15.985Z,1.92
2022-10-19T18:49:44.802Z,2.58
2022-10-19T18:52:13.657Z,12.43
2022-10-19T18:54:42.462Z,3.60
2022-10-19T18:57:11.344Z,2.50
2022-10-19T18:59:41.518Z,2.00
2022-10-19T19:02:17.268Z,2.78
2022-10-19T19:04:51.861Z,2.67
2022-10-19T19:07:20.750Z,1.40
2022-10-19T19:09:51.007Z,2.17
2022-10-19T19:12:19.843Z,1.92
2022-10-19T19:14:57.492Z,2.07
2022-10-19T19:17:26.330Z,2.65
2022-10-19T19:19:55.166Z,2.42
2022-10-19T19:22:26.121Z,2.70
2022-10-19T19:24:55.109Z,2.00
2022-10-19T19:27:27.205Z,2.20
2022-10-19T19:30:03.825Z,3.13
2022-10-19T19:32:32.871Z,2.30
2022-10-19T19:35:02.060Z,2.08
2022-10-19T19:37:31.182Z,3.17
2022-10-19T19:40:00.037Z,2.50
2022-10-19T19:42:29.613Z,2.53
2022-10-19T19:44:58.417Z,7.50
2022-10-19T19:47:28.670Z,4.22
2022-10-19T19:49:57.491Z,2.58
2022-10-19T19:52:26.642Z,2.05
2022-10-19T19:54:55.565Z,4.07
2022-10-19T19:57:24.471Z,4.15
2022-10-19T19:59:53.236Z,4.47
2022-10-19T20:02:22.257Z,2.83
2022-10-19T20:04:52.675Z,4.55
2022-10-19T20:07:21.511Z,6.13
2022-10-19T20:09:50.305Z,4.90
2022-10-19T20:12:19.175Z,3.55
2022-10-19T20:14:47.951Z,2.17
2022-10-19T20:17:16.782Z,2.45
2022-10-19T20:19:45.617Z,2.78
2022-10-19T20:22:15.912Z,2.10
2022-10-19T20:24:44.774Z,2.45
2022-10-19T20:27:13.567Z,3.00
2022-10-19T20:29:42.430Z,2.95
2022-10-19T20:32:11.287Z,3.03
2022-10-19T20:34:40.115Z,3.05
2022-10-19T20:37:08.972Z,2.28
2022-10-19T20:39:39.321Z,2.55
2022-10-19T20:42:08.170Z,3.33
2022-10-19T20:44:36.989Z,3.30
2022-10-19T20:47:05.850Z,2.95
2022-10-19T20:49:35.427Z,2.90
2022-10-19T20:52:04.345Z,3.08
2022-10-19T20:54:33.311Z,4.50
2022-10-19T20:57:03.646Z,4.90
2022-10-19T20:59:33.393Z,3.30
2022-10-19T21:02:02.300Z,3.80
2022-10-19T21:04:31.257Z,3.10
2022-10-19T21:07:00.121Z,3.53
2022-10-19T21:09:29.650Z,2.97
2022-10-19T21:11:58.514Z,2.95
2022-10-19T21:14:30.471Z,3.25
2022-10-19T21:17:00.651Z,2.80
2022-10-19T21:19:30.975Z,3.13
2022-10-19T21:22:02.743Z,2.40
2022-10-19T21:24:34.461Z,3.47
2022-10-19T21:27:06.640Z,2.58
2022-10-19T21:29:37.174Z,2.50
2022-10-19T21:32:06.123Z,3.67
2022-10-19T21:34:35.129Z,3.08
2022-10-19T21:37:04.267Z,5.00
2022-10-19T21:39:33.069Z,4.68
2022-10-19T21:42:02.686Z,4.50
2022-10-19T21:44:31.494Z,4.43
2022-10-19T21:47:01.730Z,4.35
2022-10-19T21:49:30.585Z,3.30
2022-10-19T21:51:59.433Z,4.97
2022-10-19T21:54:29.215Z,4.15
2022-10-19T21:57:00.376Z,4.55
2022-10-19T21:59:29.797Z,4.38
2022-10-19T22:01:59.825Z,4.40
2022-10-19T22:04:30.446Z,4.25
2022-10-19T22:07:02.020Z,5.60
2022-10-19T22:09:30.889Z,4.10
2022-10-19T22:11:59.692Z,3.92
2022-10-19T22:14:28.515Z,3.45
2022-10-19T22:16:57.308Z,3.65
2022-10-19T22:19:26.347Z,3.90
2022-10-19T22:21:56.561Z,5.03
2022-10-19T22:24:25.379Z,3.45
2022-10-19T22:26:54.185Z,3.08
2022-10-19T22:29:23.028Z,3.70
2022-10-19T22:31:51.816Z,4.30
2022-10-19T22:34:20.707Z,3.67
2022-10-19T22:36:49.593Z,4.30
2022-10-19T22:39:19.892Z,3.38
2022-10-19T22:41:48.757Z,4.78
2022-10-19T22:44:17.578Z,3.75
2022-10-19T22:46:46.356Z,3.25
2022-10-19T22:49:15.129Z,3.70
2022-10-19T22:51:43.933Z,2.97
2022-10-19T22:54:12.933Z,3.22
2022-10-19T22:56:43.637Z,3.40
2022-10-19T22:59:12.499Z,2.65
2022-10-19T23:01:41.459Z,3.63
2022-10-19T23:04:10.331Z,3.55
2022-10-19T23:06:39.102Z,2.55
2022-10-19T23:09:08.064Z,3.53
2022-10-19T23:11:36.896Z,3.63
2022-10-19T23:14:07.143Z,3.90
2022-10-19T23:16:35.943Z,3.85
2022-10-19T23:19:04.853Z,3.30
2022-10-19T23:21:33.689Z,4.00
2022-10-19T23:24:02.532Z,4.40
2022-10-19T23:26:31.467Z,3.00
2022-10-19T23:29:00.341Z,3.47
2022-10-19T23:31:32.835Z,3.63
2022-10-19T23:34:01.976Z,3.42
2022-10-19T23:36:30.990Z,3.05
2022-10-19T23:38:59.945Z,3.15
2022-10-19T23:41:28.980Z,2.58
2022-10-19T23:43:57.850Z,2.72
2022-10-19T23:46:26.790Z,3.30
2022-10-19T23:48:57.105Z,3.35
2022-10-19T23:51:25.935Z,4.90
2022-10-19T23:53:55.204Z,3.90
2022-10-19T23:56:25.915Z,3.60
2022-10-19T23:58:55.566Z,4.57
